Friday, February 23, 2018, 3:08 PM EST
Back to Local

KSEG, Selinsgrove Penn Valley Airport

Location: Selinsgrove, PA, United States Lat: 40.817
Local Time: 3:08 PM EST (20:08 GMT) Lon: -76.867
Time Zone: US/Eastern Elev: 449 ft

Show me the last for .
Show Decoded

2018-02-23 14:59 METAR KSEG 231959Z AUTO 21005KT 1 3/4SM +RA BR OVC010 04/03 A3038 RMK AO2 P0005
                 T00390028 =
2018-02-23 14:53 METAR KSEG 231953Z AUTO 19009KT 4SM RA BR OVC010 04/02 A3036 RMK AO2 RAB04 CIG
                 008V013 SLP286 P0003 T00390022 =
2018-02-23 13:53 METAR KSEG 231853Z AUTO 18009KT 10SM OVC011 04/02 A3039 RMK AO2 SLP295 T00390022
                 =
2018-02-23 12:53 METAR KSEG 231753Z AUTO 17009KT 10SM OVC012 04/02 A3043 RMK AO2 RAB1657E20
                 SLP307 P0000 60000 T00390022 10039 20028 58039 =
2018-02-23 11:53 METAR KSEG 231653Z AUTO 17010KT 10SM OVC014 04/02 A3047 RMK AO2 SLP324 T00390017
                 =
2018-02-23 11:27 METAR KSEG 231627Z AUTO 18011KT 10SM OVC014 04/02 A3050 RMK AO2 T00390017 =
2018-02-23 10:53 METAR KSEG 231553Z AUTO 17010KT 9SM OVC015 04/02 A3051 RMK AO2 SLP335 T00390017
                 =
2018-02-23 09:53 METAR KSEG 231453Z AUTO 18006KT 10SM OVC013 03/01 A3054 RMK AO2 SLP347 T00330011
                 58008 =
2018-02-23 08:53 METAR KSEG 231353Z AUTO 16007KT 10SM OVC012 03/01 A3055 RMK AO2 SLP348 T00330011
                 =
2018-02-23 07:53 METAR KSEG 231253Z AUTO 16005KT 10SM OVC011 03/01 A3057 RMK AO2 SLP354 T00280011
                 =
2018-02-23 07:04 METAR KSEG 231204Z AUTO 16004KT 3SM BR SCT008 OVC014 03/02 A3056 RMK AO2
                 T00280017 =
2018-02-23 06:53 METAR KSEG 231153Z AUTO 17004KT 3SM BR OVC014 03/02 A3057 RMK AO2 SLP355 70072
                 T00280017 10033 20028 55004 =
2018-02-23 05:53 METAR KSEG 231053Z AUTO 15005KT 8SM OVC012 03/01 A3056 RMK AO2 SLP351 T00280011
                 =
2018-02-23 04:53 METAR KSEG 230953Z AUTO 14005KT 6SM BR OVC011 03/01 A3057 RMK AO2 SLP356
                 T00280011 =
2018-02-23 03:53 METAR KSEG 230853Z AUTO 15003KT 9SM OVC010 03/01 A3058 RMK AO2 CIG 009V013
                 SLP359 T00280011 58009 =
2018-02-23 02:53 METAR KSEG 230753Z AUTO 17003KT 10SM OVC014 03/01 A3060 RMK AO2 SLP367 T00330011
                 =
2018-02-23 02:14 METAR KSEG 230714Z AUTO 00000KT 10SM OVC014 03/02 A3060 RMK AO2 T00330017 =
2018-02-23 01:53 METAR KSEG 230653Z AUTO 00000KT 10SM OVC015 03/02 A3060 RMK AO2 SLP367 T00330017
                 =
2018-02-23 01:48 METAR KSEG 230648Z AUTO 00000KT 10SM OVC015 03/02 A3061 RMK AO2 =
2018-02-23 01:26 METAR KSEG 230626Z AUTO 00000KT 10SM OVC014 03/01 A3061 RMK AO2 T00330011 =
2018-02-23 01:15 METAR KSEG 230615Z AUTO 08003KT 10SM OVC015 03/01 A3060 RMK AO2 T00330011 =
2018-02-23 01:05 METAR KSEG 230605Z AUTO 11004KT 10SM OVC014 03/01 A3060 RMK AO2 PRESFR T00330011
                 =
2018-02-23 00:53 METAR KSEG 230553Z AUTO 08003KT 10SM OVC015 03/01 A3062 RMK AO2 SLP372 T00330011
                 10044 20033 56006 =
2018-02-22 23:53 METAR KSEG 230453Z AUTO 12004KT 10SM OVC017 03/01 A3062 RMK AO2 SLP373 T00330011
                 400830028 =
2018-02-22 22:53 METAR KSEG 230353Z AUTO 00000KT 10SM OVC018 04/02 A3062 RMK AO2 SLP374 T00390017
                 =
2018-02-22 21:53 METAR KSEG 230253Z AUTO 12005KT 10SM OVC016 04/02 A3063 RMK AO2 SLP377 T00390017
                 52006 =
2018-02-22 21:51 METAR KSEG 230251Z AUTO 12004KT 10SM OVC016 04/02 A3063 RMK AO2 =
2018-02-22 21:31 METAR KSEG 230231Z AUTO 09003KT 10SM BKN014 OVC028 04/02 A3062 RMK AO2 T00390022
                 =
2018-02-22 20:53 METAR KSEG 230153Z AUTO 08004KT 10SM FEW019 OVC028 04/02 A3061 RMK AO2 SLP371
                 T00390022 =
2018-02-22 19:53 METAR KSEG 230053Z AUTO 04004KT 6SM BR BKN015 OVC021 04/03 A3061 RMK AO2 SLP371
                 T00440028 =
2018-02-22 18:53 METAR KSEG 222353Z AUTO 00000KT 10SM FEW010 BKN015 OVC027 04/03 A3059 RMK AO2
                 SLP364 60024 T00440033 10050 20033 55001 =
2018-02-22 18:42 METAR KSEG 222342Z AUTO 34003KT 10SM SCT010 OVC015 04/03 A3059 RMK AO2 PRESRR
                 T00440033 =
2018-02-22 17:53 METAR KSEG 222253Z AUTO 06006KT 10SM OVC011 04/03 A3056 RMK AO2 SLP351 T00440028
                 =
2018-02-22 16:53 METAR KSEG 222153Z AUTO 05004KT 10SM SCT009 OVC013 04/03 A3059 RMK AO2 SLP362
                 T00440033 =
2018-02-22 16:39 METAR KSEG 222139Z AUTO 03005KT 6SM BR FEW008 OVC013 04/03 A3059 RMK AO2
                 T00440033 =
2018-02-22 15:53 METAR KSEG 222053Z AUTO 02007KT 4SM BR OVC012 04/03 A3060 RMK AO2 RAB02E49
                 SLP364 P0003 60024 T00440028 53011 =
2018-02-22 15:28 METAR KSEG 222028Z AUTO 02004KT 3SM -RA BR FEW008 BKN012 OVC048 04/03 A3058 RMK
                 AO2 RAB02 P0002 T00440028 =
2018-02-22 15:19 METAR KSEG 222019Z AUTO 04008KT 2 1/2SM -RA BR FEW008 BKN012 OVC050 04/03 A3058
                 RMK AO2 RAB02 P0002 T00440028 =
2018-02-22 15:16 METAR KSEG 222016Z AUTO 04007KT 3SM -RA BR SCT010 BKN015 OVC050 04/03 A3058 RMK
                 AO2 RAB02 P0001 T00440028 =

Support USWX by starting your Amazon purchase here.